Time;durP1;ratioP1;P1;durP2;ratioP2;P2;SDS_P1;SDS_P2;PMS_P1;PMS_P2;Temp;Humidity;BMP_temperature;BMP_pressure;BME280_temperature;BME280_humidity;BME280_pressure;Samples;Min_cycle;Max_cycle;Signal;HPM_P1;HPM_P2
2023/04/20 00:01:22;;;;;;;4.18;3.55;;;;;;;5.23;100.00;161933.91;5072248;28;20028;-60
2023/04/20 00:03:48;;;;;;;6.95;3.35;;;;;;;5.28;100.00;161947.34;5072109;28;20024;-61
2023/04/20 00:06:14;;;;;;;6.47;4.28;;;;;;;5.30;100.00;161951.34;5069965;28;20427;-60
2023/04/20 00:08:39;;;;;;;8.60;4.35;;;;;;;5.28;100.00;161947.34;5072603;28;20108;-61
2023/04/20 00:11:05;;;;;;;7.65;3.10;;;;;;;5.29;100.00;161950.03;5061112;28;20056;-61
2023/04/20 00:13:30;;;;;;;6.47;4.32;;;;;;;5.31;100.00;161955.44;5072269;28;20391;-60
2023/04/20 00:15:55;;;;;;;12.30;5.05;;;;;;;5.35;100.00;161966.16;5069582;28;20060;-61
2023/04/20 00:18:21;;;;;;;5.82;3.85;;;;;;;5.39;100.00;161976.97;5071779;28;20027;-60
2023/04/20 00:20:46;;;;;;;4.47;4.07;;;;;;;5.39;100.00;161976.97;5070324;28;20499;-61
2023/04/20 00:23:11;;;;;;;7.00;3.95;;;;;;;5.31;100.00;161955.44;5071905;28;20427;-60
2023/04/20 00:25:37;;;;;;;6.32;4.10;;;;;;;5.25;100.00;161939.25;5069238;28;20086;-61
2023/04/20 00:28:02;;;;;;;4.35;3.85;;;;;;;5.17;100.00;161917.78;5068517;28;20098;-60
2023/04/20 00:30:27;;;;;;;7.45;4.20;;;;;;;5.08;100.00;161894.88;5050294;28;20045;-61
2023/04/20 00:32:53;;;;;;;4.88;4.38;;;;;;;5.12;100.00;161904.28;5051584;28;20024;-61
2023/04/20 00:35:18;;;;;;;5.20;3.90;;;;;;;5.08;100.00;161896.25;5050593;28;20037;-61
2023/04/20 00:37:43;;;;;;;4.55;3.83;;;;;;;5.04;100.00;161885.47;5071829;28;20032;-61
2023/04/20 00:40:09;;;;;;;8.15;4.93;;;;;;;5.03;100.00;161881.44;5069589;28;20055;-61
2023/04/20 00:42:34;;;;;;;6.70;3.85;;;;;;;5.04;100.00;161885.47;5071649;28;20031;-61
2023/04/20 00:45:00;;;;;;;6.97;4.72;;;;;;;5.01;100.00;161877.41;5069870;28;20036;-60
2023/04/20 00:47:25;;;;;;;8.35;4.75;;;;;;;4.93;100.00;161855.91;5070374;28;20463;-60
2023/04/20 00:49:51;;;;;;;4.38;3.97;;;;;;;4.91;100.00;161851.81;5070157;28;20097;-59
2023/04/20 00:52:17;;;;;;;7.57;4.20;;;;;;;4.86;100.00;161837.06;5070993;28;20107;-59
2023/04/20 00:54:42;;;;;;;9.88;4.30;;;;;;;4.83;100.00;161828.97;5069045;28;20040;-59
2023/04/20 00:57:09;;;;;;;4.85;3.97;;;;;;;4.77;100.00;161814.19;5070330;28;20036;-60
2023/04/20 00:59:35;;;;;;;6.45;5.10;;;;;;;4.75;100.00;161810.16;5069798;28;20054;-59
2023/04/20 01:02:00;;;;;;;4.18;3.80;;;;;;;4.71;100.00;161799.41;5070615;28;20028;-60
2023/04/20 01:04:26;;;;;;;3.95;3.55;;;;;;;4.68;100.00;161791.34;5058121;28;20385;-60
2023/04/20 01:06:51;;;;;;;6.60;5.03;;;;;;;4.63;100.00;161777.91;5063746;28;20035;-60
2023/04/20 01:09:16;;;;;;;7.03;4.68;;;;;;;4.64;100.00;161779.22;5082362;28;20454;-60
2023/04/20 01:11:42;;;;;;;4.57;3.80;;;;;;;4.64;100.00;161779.22;5091643;28;20364;-59
2023/04/20 01:14:07;;;;;;;6.22;4.75;;;;;;;4.54;100.00;161753.69;5089608;28;20137;-59
2023/04/20 01:16:36;;;;;;;5.68;4.57;;;;;;;4.56;100.00;161759.09;5080434;28;20039;-60
2023/04/20 01:19:01;;;;;;;7.18;4.05;;;;;;;4.58;100.00;161764.44;5069596;28;20390;-59
2023/04/20 01:21:26;;;;;;;5.25;4.63;;;;;;;4.60;100.00;161771.19;5054876;28;20052;-59
2023/04/20 01:23:52;;;;;;;9.05;5.85;;;;;;;4.64;100.00;161780.59;5061703;28;20078;-59
2023/04/20 01:26:19;;;;;;;8.68;4.55;;;;;;;4.65;100.00;161781.91;5070120;28;20028;-59
2023/04/20 01:28:45;;;;;;;9.60;4.68;;;;;;;4.72;100.00;161800.75;5071119;28;20032;-58
2023/04/20 01:31:11;;;;;;;5.00;4.15;;;;;;;4.80;100.00;161820.94;5065976;28;20140;-58
2023/04/20 01:33:36;;;;;;;5.28;4.78;;;;;;;4.86;100.00;161837.06;5051113;28;20032;-58
2023/04/20 01:36:03;;;;;;;12.27;4.60;;;;;;;4.94;100.00;161858.59;5057381;28;20040;-58
2023/04/20 01:38:31;;;;;;;4.60;3.63;;;;;;;5.01;100.00;161877.41;5075349;28;20063;-58
2023/04/20 01:40:57;;;;;;;8.35;5.95;;;;;;;5.07;100.00;161893.53;5049092;28;20056;-59
2023/04/20 01:43:23;;;;;;;5.25;4.75;;;;;;;5.15;100.00;161912.38;5050878;28;20029;-60
2023/04/20 01:45:48;;;;;;;10.65;5.35;;;;;;;5.20;100.00;161925.81;5051883;28;21663;-60
2023/04/20 01:48:14;;;;;;;8.00;4.38;;;;;;;5.23;100.00;161933.91;5070394;28;20021;-60
2023/04/20 01:50:39;;;;;;;9.40;5.53;;;;;;;5.37;100.00;161970.19;5069202;28;20102;-60
2023/04/20 01:53:04;;;;;;;11.85;5.32;;;;;;;5.45;100.00;161991.72;5070501;28;20357;-60
2023/04/20 01:55:30;;;;;;;7.10;4.60;;;;;;;5.54;100.00;162014.63;5068190;28;20090;-59
2023/04/20 01:57:55;;;;;;;6.65;4.40;;;;;;;5.67;100.00;162049.59;5052621;28;20040;-59
2023/04/20 02:00:20;;;;;;;6.05;5.15;;;;;;;5.78;100.00;162076.47;5066988;28;20048;-59
2023/04/20 02:02:46;;;;;;;6.75;4.75;;;;;;;5.88;100.00;162103.41;5074362;28;20027;-59
2023/04/20 02:05:11;;;;;;;7.82;4.68;;;;;;;5.96;100.00;162124.94;5072907;28;20666;-59
2023/04/20 02:07:36;;;;;;;5.35;4.50;;;;;;;6.10;100.00;162161.34;5073854;28;20101;-60
2023/04/20 02:10:03;;;;;;;6.40;4.40;;;;;;;6.18;100.00;162182.84;5072581;28;20389;-59
2023/04/20 02:12:29;;;;;;;5.00;4.50;;;;;;;6.22;100.00;162192.25;5074230;28;20052;-60
2023/04/20 02:14:54;;;;;;;6.13;4.30;;;;;;;6.29;100.00;162211.09;5053223;28;20075;-60
2023/04/20 02:17:20;;;;;;;5.75;4.50;;;;;;;6.34;100.00;162223.22;5068192;28;20508;-60
2023/04/20 02:19:45;;;;;;;8.15;5.95;;;;;;;6.35;100.00;162227.28;5072939;28;20037;-60
2023/04/20 02:22:11;;;;;;;6.43;4.72;;;;;;;6.39;100.00;162235.34;5073152;28;20055;-60
2023/04/20 02:24:36;;;;;;;5.03;4.00;;;;;;;6.41;100.00;162240.75;5072468;28;20036;-60
2023/04/20 02:27:02;;;;;;;6.85;5.00;;;;;;;6.42;100.00;162243.44;5062363;28;20033;-60
2023/04/20 02:29:27;;;;;;;4.15;3.78;;;;;;;6.47;100.00;162258.25;5052950;28;20037;-60
2023/04/20 02:31:53;;;;;;;12.13;6.55;;;;;;;6.50;100.00;162266.31;5066511;28;20074;-61
2023/04/20 02:34:18;;;;;;;4.72;4.32;;;;;;;6.53;100.00;162273.03;5072472;28;20094;-60
2023/04/20 02:36:43;;;;;;;5.65;4.38;;;;;;;6.53;100.00;162273.03;5069122;28;20032;-60
2023/04/20 02:39:09;;;;;;;10.13;4.22;;;;;;;6.56;100.00;162281.13;5071964;28;20025;-61
2023/04/20 02:41:34;;;;;;;6.18;5.53;;;;;;;6.61;100.00;162294.56;5074000;28;20028;-61
2023/04/20 02:44:00;;;;;;;5.97;5.22;;;;;;;6.62;100.00;162297.28;5072355;28;20721;-61
2023/04/20 02:46:25;;;;;;;6.45;4.68;;;;;;;6.58;100.00;162286.53;5072703;28;20100;-61
2023/04/20 02:48:50;;;;;;;7.57;4.22;;;;;;;6.63;100.00;162299.97;5074026;28;20027;-61
2023/04/20 02:51:16;;;;;;;8.32;4.20;;;;;;;6.64;100.00;162301.31;5072145;28;20052;-61
2023/04/20 02:53:41;;;;;;;5.28;4.78;;;;;;;6.66;100.00;162308.03;5066209;28;20021;-62
2023/04/20 02:56:06;;;;;;;6.55;4.85;;;;;;;6.70;100.00;162316.13;5054896;28;20044;-62
2023/04/20 02:58:32;;;;;;;9.23;5.15;;;;;;;6.73;100.00;162324.22;5073951;28;20027;-62
2023/04/20 03:01:01;;;;;;;6.05;5.50;;;;;;;6.73;100.00;162325.53;5076435;28;20044;-62
2023/04/20 03:03:26;;;;;;;;;;;;;;;6.78;100.00;162337.66;5094241;28;20031;-62
2023/04/20 03:05:52;;;;;;;9.82;4.88;;;;;;;6.78;100.00;162337.66;5071977;28;19917;-62
2023/04/20 03:08:17;;;;;;;9.27;3.85;;;;;;;6.75;100.00;162329.56;5052345;28;20024;-61
2023/04/20 03:10:42;;;;;;;8.70;5.68;;;;;;;6.76;100.00;162332.28;5053828;28;20045;-62
2023/04/20 03:13:08;;;;;;;6.68;4.60;;;;;;;6.79;100.00;162341.69;5073677;28;20028;-59
2023/04/20 03:15:33;;;;;;;9.55;5.03;;;;;;;6.76;100.00;162333.66;5069172;28;20037;-61
2023/04/20 03:17:58;;;;;;;7.57;4.85;;;;;;;6.80;100.00;162344.41;5055516;28;20586;-60
2023/04/20 03:20:24;;;;;;;4.70;4.28;;;;;;;6.78;100.00;162337.66;5051635;28;20044;-60
2023/04/20 03:22:49;;;;;;;5.28;4.53;;;;;;;6.77;100.00;162336.34;5071281;28;20035;-61
2023/04/20 03:25:15;;;;;;;8.80;5.65;;;;;;;6.76;100.00;162332.28;5071488;28;20633;-61
2023/04/20 03:27:40;;;;;;;5.95;4.40;;;;;;;6.76;100.00;162333.66;5073389;28;20078;-61
2023/04/20 03:30:07;;;;;;;10.32;5.70;;;;;;;6.74;100.00;162326.94;5069651;28;20052;-60
2023/04/20 03:32:32;;;;;;;11.82;6.25;;;;;;;6.73;100.00;162324.22;5059744;28;20037;-61
2023/04/20 03:34:57;;;;;;;7.63;6.22;;;;;;;6.76;100.00;162332.28;5051250;28;20048;-61
2023/04/20 03:37:23;;;;;;;4.55;4.13;;;;;;;6.79;100.00;162340.38;5069331;28;20024;-61
2023/04/20 03:39:48;;;;;;;5.68;5.15;;;;;;;6.75;100.00;162329.56;5071615;28;20032;-61
2023/04/20 03:42:13;;;;;;;13.18;4.57;;;;;;;6.74;100.00;162328.25;5071711;28;20036;-61
2023/04/20 03:44:39;;;;;;;6.85;5.18;;;;;;;6.72;100.00;162322.84;5066451;28;20039;-61
2023/04/20 03:47:04;;;;;;;9.57;5.25;;;;;;;6.71;100.00;162320.16;5072500;28;20472;-61
2023/04/20 03:49:30;;;;;;;7.57;5.25;;;;;;;6.70;100.00;162317.50;5071359;28;20400;-61
2023/04/20 03:51:55;;;;;;;11.98;4.28;;;;;;;6.69;100.00;162313.44;5071945;28;20355;-60
2023/04/20 03:54:20;;;;;;;5.90;5.22;;;;;;;6.72;100.00;162322.84;5071148;28;20048;-57
2023/04/20 03:56:48;;;;;;;10.80;5.82;;;;;;;6.71;100.00;162318.81;5072597;28;20028;-58
2023/04/20 03:59:14;;;;;;;8.88;5.93;;;;;;;6.71;100.00;162318.81;5070581;28;20477;-58
2023/04/20 04:01:39;;;;;;;10.07;6.18;;;;;;;6.71;100.00;162318.81;5072447;28;20418;-58
2023/04/20 04:04:04;;;;;;;11.60;6.10;;;;;;;6.64;100.00;162301.31;5071048;28;20028;-58
2023/04/20 04:06:31;;;;;;;9.82;6.22;;;;;;;6.66;100.00;162308.03;5071908;28;20033;-59
2023/04/20 04:08:56;;;;;;;10.25;6.57;;;;;;;6.64;100.00;162301.31;5070756;28;20384;-59
2023/04/20 04:11:21;;;;;;;8.02;6.13;;;;;;;6.62;100.00;162297.28;5072116;28;20024;-58
2023/04/20 04:13:48;;;;;;;9.70;6.05;;;;;;;6.65;100.00;162304.00;5072577;28;20024;-58
2023/04/20 04:16:13;;;;;;;9.20;5.70;;;;;;;6.61;100.00;162294.56;5070247;28;20585;-57
2023/04/20 04:18:42;;;;;;;14.23;6.15;;;;;;;6.54;100.00;162275.72;5072066;28;20024;-57
2023/04/20 04:21:09;;;;;;;8.63;5.78;;;;;;;6.54;100.00;162275.72;5069480;28;20131;-57
2023/04/20 04:23:36;;;;;;;13.73;5.03;;;;;;;6.49;100.00;162262.28;5071755;28;20059;-57
2023/04/20 04:26:01;;;;;;;9.00;6.68;;;;;;;6.51;100.00;162267.69;5070248;28;20072;-57
2023/04/20 04:28:27;;;;;;;7.53;6.25;;;;;;;6.50;100.00;162266.31;5072126;28;20024;-57
2023/04/20 04:30:53;;;;;;;7.72;5.93;;;;;;;6.45;100.00;162251.47;5069927;28;20048;-57
2023/04/20 04:33:19;;;;;;;9.43;6.43;;;;;;;6.47;100.00;162256.88;5071812;28;20028;-57
2023/04/20 04:35:44;;;;;;;12.55;6.15;;;;;;;6.50;100.00;162264.97;5070244;28;20167;-57
2023/04/20 04:38:11;;;;;;;13.93;5.38;;;;;;;6.54;100.00;162275.72;5071264;28;20491;-57
2023/04/20 04:40:38;;;;;;;8.45;6.78;;;;;;;6.53;100.00;162271.72;5070094;28;20044;-57
2023/04/20 04:43:03;;;;;;;7.10;5.35;;;;;;;6.51;100.00;162267.69;5071641;28;20102;-57
2023/04/20 04:45:29;;;;;;;4.43;3.95;;;;;;;6.54;100.00;162275.72;5069987;28;20131;-57
2023/04/20 04:47:55;;;;;;;9.30;5.72;;;;;;;6.51;100.00;162267.69;5071183;28;20085;-57
2023/04/20 04:50:21;;;;;;;5.90;5.30;;;;;;;6.52;100.00;162270.31;5070038;28;20060;-57
2023/04/20 04:52:46;;;;;;;8.00;5.10;;;;;;;6.52;100.00;162270.31;5071441;28;20028;-57
2023/04/20 04:55:12;;;;;;;6.57;5.40;;;;;;;6.54;100.00;162275.72;5066512;28;20415;-57
2023/04/20 04:57:37;;;;;;;5.78;5.25;;;;;;;6.53;100.00;162273.03;5070255;28;20037;-57
2023/04/20 05:00:08;;;;;;;6.68;5.80;;;;;;;6.53;100.00;162271.72;5066709;28;20044;-57
2023/04/20 05:02:34;;;;;;;17.58;6.72;;;;;;;6.53;100.00;162271.72;5070022;28;20032;-57
2023/04/20 05:04:59;;;;;;;6.45;5.10;;;;;;;6.53;100.00;162273.03;5068334;28;20032;-57
2023/04/20 05:07:25;;;;;;;15.85;6.63;;;;;;;6.53;100.00;162273.03;5068953;28;20467;-57
2023/04/20 05:09:50;;;;;;;8.68;5.50;;;;;;;6.56;100.00;162281.13;5068395;28;20094;-57
2023/04/20 05:12:16;;;;;;;14.05;6.38;;;;;;;6.55;100.00;162278.44;5069794;28;20397;-57
2023/04/20 05:14:41;;;;;;;16.75;5.75;;;;;;;6.59;100.00;162287.84;5068263;28;20048;-58
2023/04/20 05:17:06;;;;;;;7.55;6.10;;;;;;;6.60;100.00;162291.88;5069227;28;20017;-58
2023/04/20 05:19:32;;;;;;;11.15;4.97;;;;;;;6.59;100.00;162289.19;5068315;28;20040;-57
2023/04/20 05:21:57;;;;;;;28.25;6.95;;;;;;;6.62;100.00;162297.28;5069060;28;20044;-57
2023/04/20 05:24:22;;;;;;;10.05;4.50;;;;;;;6.70;100.00;162316.13;5068528;28;20123;-57
2023/04/20 05:26:48;;;;;;;6.35;4.20;;;;;;;6.70;100.00;162316.13;5069823;28;20036;-57
2023/04/20 05:29:15;;;;;;;7.95;4.72;;;;;;;6.74;100.00;162328.25;5068384;28;20051;-57
2023/04/20 05:31:40;;;;;;;5.43;4.35;;;;;;;6.78;100.00;162337.66;5070422;28;20032;-57
2023/04/20 05:34:06;;;;;;;5.25;4.30;;;;;;;6.86;100.00;162359.22;5069082;28;20388;-57
2023/04/20 05:36:32;;;;;;;7.85;4.45;;;;;;;6.86;100.00;162359.22;5070858;28;20028;-58
2023/04/20 05:38:58;;;;;;;4.53;3.88;;;;;;;6.89;100.00;162365.94;5068030;28;20032;-57
2023/04/20 05:41:26;;;;;;;5.93;4.82;;;;;;;6.82;100.00;162348.41;5070706;28;20021;-57
2023/04/20 05:43:52;;;;;;;9.10;5.55;;;;;;;6.81;100.00;162347.09;5070388;28;20055;-57
2023/04/20 05:46:17;;;;;;;9.85;5.03;;;;;;;6.79;100.00;162340.38;5067822;28;20105;-57
2023/04/20 05:48:42;;;;;;;9.90;6.70;;;;;;;6.77;100.00;162334.97;5069046;28;20471;-57
2023/04/20 05:51:08;;;;;;;9.10;4.97;;;;;;;6.79;100.00;162340.38;5066876;28;20450;-57
2023/04/20 05:53:33;;;;;;;6.78;5.35;;;;;;;6.86;100.00;162359.22;5069578;28;20017;-57
2023/04/20 05:55:58;;;;;;;9.32;5.68;;;;;;;6.98;100.00;162391.53;5067710;28;20041;-57
2023/04/20 05:58:24;;;;;;;7.22;6.40;;;;;;;6.97;100.00;162388.81;5068780;28;20078;-57
2023/04/20 06:00:49;;;;;;;5.68;5.10;;;;;;;7.09;100.00;162418.47;5068316;28;20039;-57
2023/04/20 06:03:15;;;;;;;7.30;5.18;;;;;;;7.09;100.00;162419.81;5070088;28;20086;-57
2023/04/20 06:05:40;;;;;;;11.88;5.93;;;;;;;7.10;100.00;162421.19;5068646;28;20041;-57
2023/04/20 06:08:06;;;;;;;9.88;5.03;;;;;;;6.98;100.00;162391.53;5070061;28;20039;-57
2023/04/20 06:10:32;;;;;;;7.60;4.75;;;;;;;7.01;100.00;162398.25;5068971;28;20052;-57
2023/04/20 06:12:58;;;;;;;12.32;4.75;;;;;;;6.91;100.00;162372.66;5067102;28;20083;-58
2023/04/20 06:15:23;;;;;;;7.72;4.97;;;;;;;6.83;100.00;162352.50;5068643;28;20070;-57
2023/04/20 06:17:49;;;;;;;9.35;4.80;;;;;;;6.86;100.00;162357.84;5070297;28;20028;-57
2023/04/20 06:20:14;;;;;;;5.93;5.35;;;;;;;6.82;100.00;162348.41;5067709;28;20086;-56
2023/04/20 06:22:44;;;;;;;12.18;6.63;;;;;;;6.92;100.00;162375.38;5070422;28;20077;-57
2023/04/20 06:25:09;;;;;;;5.90;4.47;;;;;;;6.98;100.00;162391.53;5068741;28;20124;-57
2023/04/20 06:27:35;;;;;;;6.40;5.25;;;;;;;7.01;100.00;162396.91;5070144;28;20108;-57
2023/04/20 06:30:00;;;;;;;6.22;5.72;;;;;;;6.95;100.00;162383.47;5068571;28;20503;-58
2023/04/20 06:32:26;;;;;;;6.55;5.82;;;;;;;6.92;100.00;162375.38;5070310;28;20434;-57
2023/04/20 06:34:51;;;;;;;8.93;5.13;;;;;;;7.04;100.00;162404.97;5068590;28;20042;-57
2023/04/20 06:37:17;;;;;;;6.30;5.68;;;;;;;7.03;100.00;162403.66;5070387;28;20040;-57
2023/04/20 06:39:42;;;;;;;12.82;5.78;;;;;;;7.00;100.00;162395.53;5068678;28;20032;-57
2023/04/20 06:42:08;;;;;;;8.35;5.63;;;;;;;6.94;100.00;162379.41;5069271;28;20096;-57
2023/04/20 06:44:33;;;;;;;8.80;6.00;;;;;;;6.96;100.00;162386.13;5071800;28;20090;-57
2023/04/20 06:46:58;;;;;;;8.05;5.53;;;;;;;6.95;100.00;162382.09;5073757;28;20024;-57
2023/04/20 06:49:24;;;;;;;9.70;5.45;;;;;;;6.93;100.00;162378.06;5071855;28;20037;-57
2023/04/20 06:51:49;;;;;;;9.90;5.18;;;;;;;6.95;100.00;162382.09;5073981;28;20020;-58
2023/04/20 06:54:15;;;;;;;6.00;5.35;;;;;;;7.04;100.00;162404.97;5072323;28;20047;-57
2023/04/20 06:56:40;;;;;;;11.02;6.18;;;;;;;7.12;100.00;162427.91;5073451;28;20028;-57
2023/04/20 06:59:05;;;;;;;10.80;6.72;;;;;;;7.23;100.00;162456.19;5072042;28;20024;-57
2023/04/20 07:01:31;;;;;;;6.50;5.90;;;;;;;7.43;100.00;162507.34;5073387;28;20021;-58
2023/04/20 07:03:56;;;;;;;5.20;4.75;;;;;;;7.62;100.00;162558.56;5071905;28;20025;-57
2023/04/20 07:06:21;;;;;;;6.13;5.53;;;;;;;7.73;100.00;162586.88;5073311;28;20020;-57
2023/04/20 07:08:47;;;;;;;6.28;5.63;;;;;;;7.87;100.00;162621.88;5073535;28;20073;-58
2023/04/20 07:11:12;;;;;;;6.50;5.32;;;;;;;7.92;100.00;162636.72;5071555;28;20063;-57
2023/04/20 07:13:37;;;;;;;7.00;6.35;;;;;;;8.17;100.00;162700.03;5073216;28;20478;-58
2023/04/20 07:16:03;;;;;;;10.50;5.75;;;;;;;8.30;100.00;162733.75;5071692;28;20495;-58
2023/04/20 07:18:28;;;;;;;6.32;4.93;;;;;;;8.46;100.00;162776.84;5073559;28;20386;-58
2023/04/20 07:20:54;;;;;;;6.95;5.35;;;;;;;8.49;100.00;162785.00;5071026;28;20045;-58
2023/04/20 07:23:20;;;;;;;7.40;6.05;;;;;;;8.21;100.00;162712.19;5073405;28;20020;-58
2023/04/20 07:25:45;;;;;;;14.57;6.03;;;;;;;8.14;100.00;162693.31;5071750;28;20055;-58
2023/04/20 07:28:11;;;;;;;5.45;4.63;;;;;;;8.00;100.00;162655.59;5072472;28;20028;-58
2023/04/20 07:30:36;;;;;;;9.70;5.20;;;;;;;8.08;100.00;162677.09;5071688;28;20407;-57
2023/04/20 07:33:02;;;;;;;7.72;5.00;;;;;;;7.89;100.00;162628.63;5073129;28;20020;-58
2023/04/20 07:35:27;;;;;;;9.88;5.10;;;;;;;7.89;100.00;162627.28;5071084;28;20482;-58
2023/04/20 07:37:52;;;;;;;10.32;6.13;;;;;;;7.64;100.00;162562.59;5073164;28;20384;-58
2023/04/20 07:40:18;;;;;;;7.18;5.43;;;;;;;7.47;100.00;162518.16;5071026;28;20033;-58
2023/04/20 07:42:43;;;;;;;6.65;5.32;;;;;;;7.28;100.00;162469.63;5072606;28;20019;-58
2023/04/20 07:45:10;;;;;;;6.05;5.45;;;;;;;7.17;100.00;162440.03;5070988;28;20040;-57
2023/04/20 07:47:36;;;;;;;9.63;5.45;;;;;;;7.22;100.00;162453.47;5072821;28;20471;-58
2023/04/20 07:50:03;;;;;;;6.88;6.13;;;;;;;7.26;100.00;162462.91;5070593;28;20082;-58
2023/04/20 07:52:28;;;;;;;7.45;5.88;;;;;;;7.30;100.00;162475.03;5072664;28;20032;-58
2023/04/20 07:54:55;;;;;;;9.73;5.63;;;;;;;7.40;100.00;162499.28;5070477;28;20043;-58
2023/04/20 07:57:21;;;;;;;7.75;6.80;;;;;;;7.48;100.00;162520.84;5072436;28;20064;-58
2023/04/20 07:59:46;;;;;;;10.20;5.88;;;;;;;7.42;100.00;162504.66;5071136;28;20029;-57
2023/04/20 08:02:11;;;;;;;10.90;7.43;;;;;;;7.56;100.00;162541.03;5071789;28;20033;-58
2023/04/20 08:04:37;;;;;;;7.05;5.57;;;;;;;7.62;100.00;162557.19;5070671;28;20037;-58
2023/04/20 08:07:02;;;;;;;6.13;4.82;;;;;;;7.65;100.00;162563.94;5072375;28;20013;-58
2023/04/20 08:09:28;;;;;;;7.18;5.63;;;;;;;7.74;100.00;162588.19;5071094;28;20499;-58
2023/04/20 08:11:54;;;;;;;5.95;5.40;;;;;;;7.55;100.00;162538.34;5072253;28;20364;-58
2023/04/20 08:14:19;;;;;;;7.38;5.78;;;;;;;7.42;100.00;162504.66;5070716;28;20507;-58
2023/04/20 08:16:44;;;;;;;5.90;5.35;;;;;;;7.49;100.00;162523.50;5072135;28;20028;-58
2023/04/20 08:19:10;;;;;;;7.85;5.43;;;;;;;7.57;100.00;162545.06;5070076;28;20024;-58
2023/04/20 08:21:36;;;;;;;6.57;5.97;;;;;;;7.73;100.00;162585.47;5071821;28;20049;-58
2023/04/20 08:24:03;;;;;;;6.70;5.72;;;;;;;7.89;100.00;162628.63;5070440;28;20115;-58
2023/04/20 08:26:28;;;;;;;6.47;5.82;;;;;;;8.12;100.00;162687.91;5072018;28;20020;-58
2023/04/20 08:28:54;;;;;;;6.45;5.82;;;;;;;8.37;100.00;162753.94;5070321;28;20032;-58
2023/04/20 08:31:19;;;;;;;6.78;6.05;;;;;;;8.49;100.00;162785.00;5071814;28;20024;-58
2023/04/20 08:33:45;;;;;;;6.75;5.68;;;;;;;8.50;100.00;162786.31;5071521;28;20016;-58
2023/04/20 08:36:10;;;;;;;9.32;5.70;;;;;;;8.59;100.00;162809.28;5070193;28;20109;-58
2023/04/20 08:38:36;;;;;;;8.85;5.32;;;;;;;8.59;100.00;162809.28;5071927;28;20021;-58
2023/04/20 08:41:01;;;;;;;8.40;4.93;;;;;;;8.51;100.00;162790.41;5069522;28;20036;-58
2023/04/20 08:43:27;;;;;;;8.90;5.40;;;;;;;8.48;100.00;162782.28;5071497;28;20471;-57
2023/04/20 08:45:58;;;;;;;7.55;5.40;;;;;;;8.48;100.00;162782.28;5070315;28;20453;-58
2023/04/20 08:48:24;;;;;;;5.50;4.97;;;;;;;8.76;100.00;162853.75;5071343;28;20024;-58
2023/04/20 08:50:50;;;;;;;5.50;5.00;;;;;;;9.02;100.00;162922.53;5069995;28;20356;-58
2023/04/20 08:53:15;;;;;;;7.15;5.05;;;;;;;9.10;100.00;162944.09;5071195;28;20024;-58
2023/04/20 08:55:40;;;;;;;6.95;5.82;;;;;;;9.00;100.00;162917.13;5069765;28;20044;-58
2023/04/20 08:58:06;;;;;;;5.88;5.28;;;;;;;9.11;100.00;162946.81;5071128;28;20016;-58
2023/04/20 09:00:31;;;;;;;5.70;4.80;;;;;;;9.03;100.00;162926.56;5069935;28;20032;-58
2023/04/20 09:03:00;;;;;;;16.08;7.47;;;;;;;9.07;100.00;162936.00;5070776;28;20365;-58
2023/04/20 09:05:28;;;;;;;7.45;4.93;;;;;;;9.20;100.00;162971.03;5069712;28;20127;-58
2023/04/20 09:07:56;;;;;;;7.68;4.88;;;;;;;9.63;100.00;163081.69;5071560;28;20107;-58
2023/04/20 09:10:23;;;;;;;9.73;5.28;;;;;;;9.82;100.00;163132.94;5069463;28;20041;-58
2023/04/20 09:12:48;;;;;;;7.20;4.78;;;;;;;9.77;100.00;163118.06;5071000;28;20024;-58
2023/04/20 09:15:27;;;;;;;7.53;4.97;;;;;;;9.96;100.00;163168.00;5069548;28;20177;-59
2023/04/20 09:17:53;;;;;;;5.28;4.78;;;;;;;9.77;100.00;163118.06;5070986;28;20029;-58
2023/04/20 09:20:29;;;;;;;5.35;4.80;;;;;;;9.67;100.00;163093.81;5069218;28;20035;-58
2023/04/20 09:22:55;;;;;;;6.80;4.85;;;;;;;9.50;100.00;163047.94;5070742;28;20093;-58
2023/04/20 09:25:20;;;;;;;7.85;4.75;;;;;;;9.46;100.00;163037.13;5069234;28;20503;-58
2023/04/20 09:27:57;;;;;;;6.65;4.80;;;;;;;9.17;100.00;162962.97;5071236;28;20055;-58
2023/04/20 09:30:23;;;;;;;7.63;5.82;;;;;;;9.18;100.00;162965.69;5069416;28;20123;-58
2023/04/20 09:32:48;;;;;;;7.68;6.93;;;;;;;9.26;100.00;162985.91;5070836;28;20056;-58
2023/04/20 09:35:22;;;;;;;10.57;5.43;;;;;;;9.39;100.00;163019.63;5069338;28;20047;-58
2023/04/20 09:37:47;;;;;;;7.47;4.60;;;;;;;9.56;100.00;163062.78;5071287;28;20048;-58
2023/04/20 09:40:13;;;;;;;6.32;4.90;;;;;;;9.72;100.00;163105.91;5068648;28;20122;-58
2023/04/20 09:42:40;;;;;;;5.85;5.07;;;;;;;10.59;100.00;163334.03;5070850;28;20025;-58
2023/04/20 09:45:06;;;;;;;7.90;5.10;;;;;;;11.13;100.00;163473.13;5069180;28;20119;-58
2023/04/20 09:47:35;;;;;;;4.97;4.53;;;;;;;11.26;100.00;163508.22;5070481;28;20475;-58
2023/04/20 09:50:01;;;;;;;;;;;;;;;10.59;100.00;163334.03;5069626;28;20144;-58
2023/04/20 09:52:27;;;;;;;5.30;4.80;;;;;;;10.46;100.00;163300.28;5071060;28;19995;-58
2023/04/20 09:54:53;;;;;;;4.22;3.83;;;;;;;10.71;100.00;163365.09;5068698;28;20036;-57
2023/04/20 09:57:20;;;;;;;13.48;5.32;;;;;;;11.72;100.00;163629.78;5070155;28;20033;-57
2023/04/20 09:59:46;;;;;;;8.18;5.13;;;;;;;12.05;100.00;163716.25;5069349;28;20059;-58
2023/04/20 10:02:12;;;;;;;5.32;4.03;;;;;;;11.87;100.00;163668.94;5069766;28;20063;-57
2023/04/20 10:04:53;;;;;;;4.82;4.43;;;;;;;11.61;100.00;163600.03;5067582;28;20380;-58
2023/04/20 10:07:30;;;;;;;9.27;4.88;;;;;;;11.34;100.00;163528.44;5070636;28;20035;-58
2023/04/20 10:10:14;;;;;;;8.85;4.80;;;;;;;11.52;100.00;163575.72;5068588;28;20040;-58
2023/04/20 10:12:58;;;;;;;4.85;4.35;;;;;;;11.77;100.00;163640.56;5070686;28;20023;-58
2023/04/20 10:15:35;;;;;;;5.63;5.13;;;;;;;11.84;100.00;163659.47;5069027;28;20102;-57
2023/04/20 10:18:01;;;;;;;4.73;4.33;;;;;;;12.02;100.00;163706.81;5070651;28;20024;-58
2023/04/20 10:20:27;;;;;;;8.10;5.72;;;;;;;11.93;100.00;163683.81;5072888;28;20035;-58
2023/04/20 10:23:05;;;;;;;6.47;4.65;;;;;;;12.09;100.00;163724.38;5074335;28;20391;-58
2023/04/20 10:25:30;;;;;;;6.47;4.68;;;;;;;11.75;100.00;163637.84;5072459;28;20048;-57
2023/04/20 10:27:59;;;;;;;6.45;4.90;;;;;;;11.29;100.00;163516.28;5074157;28;20036;-58
2023/04/20 10:30:28;;;;;;;7.05;4.97;;;;;;;10.84;100.00;163397.47;5090425;28;20036;-58
2023/04/20 10:33:08;;;;;;;8.77;5.13;;;;;;;10.48;100.00;163305.69;5094196;28;20477;-58
2023/04/20 10:35:51;;;;;;;11.20;5.43;;;;;;;10.56;100.00;163324.59;5091252;28;20481;-58
2023/04/20 10:38:29;;;;;;;7.78;5.50;;;;;;;10.90;100.00;163415.03;5094384;28;20020;-57
2023/04/20 10:40:54;;;;;;;8.23;6.07;;;;;;;11.18;100.00;163486.59;5087117;28;20129;-58
2023/04/20 10:43:20;;;;;;;6.35;5.15;;;;;;;10.99;100.00;163437.97;5094366;28;20568;-58
2023/04/20 10:45:46;;;;;;;8.48;4.78;;;;;;;11.02;100.00;163446.09;5092912;28;20100;-58
2023/04/20 10:48:12;;;;;;;9.48;5.68;;;;;;;10.74;100.00;163371.84;5075006;28;20028;-58
2023/04/20 10:50:38;;;;;;;5.43;4.60;;;;;;;10.58;100.00;163330.00;5072159;28;20036;-58
2023/04/20 10:53:03;;;;;;;7.95;5.43;;;;;;;10.59;100.00;163332.72;5073596;28;20036;-58
2023/04/20 10:55:29;;;;;;;6.03;5.40;;;;;;;10.66;100.00;163350.22;5071992;28;20043;-58
2023/04/20 10:57:55;;;;;;;6.35;5.38;;;;;;;10.84;100.00;163397.47;5079885;28;20111;-58
2023/04/20 11:00:23;;;;;;;9.15;6.55;;;;;;;10.79;100.00;163386.69;5072128;28;20044;-58
2023/04/20 11:02:56;;;;;;;6.03;4.82;;;;;;;10.87;100.00;163405.59;5073586;28;20114;-58
2023/04/20 11:05:23;;;;;;;6.13;5.53;;;;;;;11.07;100.00;163459.59;5071983;28;20040;-57
2023/04/20 11:07:53;;;;;;;6.50;5.33;;;;;;;11.30;100.00;163517.66;5073524;28;20039;-58
2023/04/20 11:10:20;;;;;;;5.63;5.13;;;;;;;11.10;100.00;163467.72;5071562;28;20467;-58
2023/04/20 11:12:46;;;;;;;6.15;5.55;;;;;;;11.16;100.00;163482.56;5073555;28;20479;-58
2023/04/20 11:15:12;;;;;;;7.60;6.03;;;;;;;11.17;100.00;163483.91;5071723;28;20123;-58
2023/04/20 11:17:38;;;;;;;6.38;5.10;;;;;;;10.65;100.00;163348.91;5073020;28;20059;-58
2023/04/20 11:20:09;;;;;;;7.68;5.65;;;;;;;10.17;100.00;163223.34;5071657;28;20494;-58